Terminal Aerodrome Forecast
Issued by NWS Milwaukee/Sullivan, WI

Home | Current Version | Previous Version | Text Only | Print | Product List | Glossary On
Versions: 1 2 3 4 5 6 7 8 9 10 11 12 13 14 15 16 17 18 19 20 21 22 23 24 25 26 27 28 29 30 31
000
FTUS43 KMKX 240418 AAC
TAFMSN
TAF AMD
KMSN 240418Z 2404/2424 06014G24KT 2SM -SNPL OVC008
     FM240900 06016G27KT 3SM RAPL VCTS OVC008CB
     FM241200 05015G26KT 5SM -FZRA VCTS OVC008CB
     FM241500 06016G27KT 3SM -FZRA OVC008
     FM241800 05013G23KT 3SM -RA OVC003
     FM242200 04012KT 1SM -FZRA OVC003=

USA.gov is the U.S. government's official web portal to all federal, state and local government web resources and services.